Time;durP1;ratioP1;P1;durP2;ratioP2;P2;SDS_P1;SDS_P2;PMS_P1;PMS_P2;Temp;Humidity;BMP_temperature;BMP_pressure;BME280_temperature;BME280_humidity;BME280_pressure;Samples;Min_cycle;Max_cycle;Signal;HPM_P1;HPM_P2
2022/09/03 00:02:34;;;;;;;1.20;1.10;;;15.90;99.90;;;;;;5011731;28;20206;-79
2022/09/03 00:05:12;;;;;;;0.80;0.80;;;15.90;99.90;;;;;;5010664;28;20528;-82
2022/09/03 00:07:57;;;;;;;1.17;1.07;;;15.90;99.90;;;;;;5012247;28;20508;-79
2022/09/03 00:10:30;;;;;;;1.13;1.10;;;15.70;99.90;;;;;;5012149;28;20314;-81
2022/09/03 00:13:00;;;;;;;1.43;1.10;;;15.60;99.90;;;;;;5011705;28;20643;-81
2022/09/03 00:15:27;;;;;;;1.03;0.90;;;15.50;99.90;;;;;;5011582;28;20249;-79
2022/09/03 00:18:20;;;;;;;1.43;1.33;;;15.50;99.90;;;;;;5010662;28;20231;-80
2022/09/03 00:20:57;;;;;;;1.10;1.00;;;15.40;99.90;;;;;;5009679;28;20306;-80
2022/09/03 00:23:26;;;;;;;0.80;0.80;;;15.30;99.90;;;;;;5011833;28;20227;-81
2022/09/03 00:26:04;;;;;;;1.20;1.10;;;15.30;99.90;;;;;;5010583;28;20250;-79
2022/09/03 00:28:53;;;;;;;4.93;1.23;;;15.30;99.90;;;;;;5012287;28;20171;-80
2022/09/03 00:31:25;;;;;;;1.43;1.23;;;15.40;99.90;;;;;;5012207;28;20195;-79
2022/09/03 00:34:19;;;;;;;1.00;0.87;;;15.40;99.90;;;;;;5008957;28;20235;-79
2022/09/03 00:36:45;;;;;;;2.77;0.90;;;15.50;99.90;;;;;;5004982;28;20223;-79
2022/09/03 00:39:14;;;;;;;3.97;0.93;;;15.50;99.90;;;;;;5030489;28;20219;-78
2022/09/03 00:42:06;;;;;;;0.60;0.60;;;15.60;99.90;;;;;;5014987;28;20207;-81
2022/09/03 00:44:47;;;;;;;1.03;0.90;;;15.60;99.90;;;;;;5014881;28;20226;-79
2022/09/03 00:47:17;;;;;;;11.80;1.17;;;15.60;99.90;;;;;;5013836;28;20301;-79
2022/09/03 00:50:02;;;;;;;1.30;1.20;;;15.50;99.90;;;;;;5013893;28;20178;-79
2022/09/03 00:52:50;;;;;;;1.13;0.90;;;15.40;99.90;;;;;;5015433;28;20188;-80
2022/09/03 00:55:46;;;;;;;1.27;1.00;;;15.40;99.90;;;;;;5015272;28;20254;-79
2022/09/03 00:58:36;;;;;;;1.60;0.80;;;15.40;99.90;;;;;;5015175;28;20200;-78
2022/09/03 01:01:17;;;;;;;2.23;1.43;;;15.50;99.90;;;;;;5014933;28;20249;-78
2022/09/03 01:04:13;;;;;;;1.37;1.27;;;15.50;99.90;;;;;;5014842;28;20302;-77
2022/09/03 01:07:17;;;;;;;1.00;0.90;;;15.50;99.90;;;;;;5014738;28;20706;-78
2022/09/03 01:10:00;;;;;;;0.70;0.70;;;15.50;99.90;;;;;;5013859;28;20247;-78
2022/09/03 01:12:34;;;;;;;0.77;0.77;;;15.70;99.90;;;;;;5029857;28;20223;-77
2022/09/03 01:15:14;;;;;;;0.70;0.70;;;15.60;99.90;;;;;;5014395;28;20218;-78
2022/09/03 01:17:40;;;;;;;1.13;1.13;;;15.70;99.90;;;;;;5014224;28;20219;-78
2022/09/03 01:20:08;;;;;;;1.00;0.87;;;15.70;99.90;;;;;;5014526;28;20267;-79
2022/09/03 01:22:43;;;;;;;0.93;0.93;;;15.60;99.90;;;;;;5013687;28;20250;-80
2022/09/03 01:25:36;;;;;;;0.90;0.90;;;15.50;99.90;;;;;;4995053;28;20254;-79
2022/09/03 01:28:23;;;;;;;1.10;1.00;;;15.50;99.90;;;;;;5013528;28;20277;-78
2022/09/03 01:31:10;;;;;;;1.60;0.77;;;15.40;99.90;;;;;;5014194;28;20221;-78
2022/09/03 01:33:42;;;;;;;5.73;1.33;;;15.40;99.90;;;;;;5013877;28;20233;-78
2022/09/03 01:36:28;;;;;;;0.93;0.93;;;15.40;99.90;;;;;;5012762;28;20215;-81
2022/09/03 01:39:14;;;;;;;2.80;0.80;;;15.40;99.90;;;;;;5014017;28;20241;-78
2022/09/03 01:42:15;;;;;;;0.83;0.80;;;15.30;99.90;;;;;;5013783;28;20695;-79
2022/09/03 01:44:43;;;;;;;1.23;1.00;;;15.30;99.90;;;;;;5013372;28;20214;-79
2022/09/03 01:47:48;;;;;;;1.53;1.13;;;15.30;99.90;;;;;;5013856;28;20211;-79
2022/09/03 01:50:48;;;;;;;0.87;0.87;;;15.20;99.90;;;;;;5013932;28;20230;-79
2022/09/03 01:53:56;;;;;;;0.93;0.90;;;15.30;99.90;;;;;;5012142;28;20219;-78
2022/09/03 01:56:37;;;;;;;0.90;0.80;;;15.20;99.90;;;;;;5008964;28;20230;-78
2022/09/03 01:59:31;;;;;;;0.83;0.83;;;15.10;99.90;;;;;;4997067;28;20226;-78
2022/09/03 02:02:35;;;;;;;0.80;0.80;;;15.00;99.90;;;;;;5012471;28;20234;-79
2022/09/03 02:05:14;;;;;;;4.40;1.40;;;15.00;99.90;;;;;;5009692;28;20197;-79
2022/09/03 02:07:46;;;;;;;0.77;0.77;;;14.90;99.90;;;;;;5014123;28;20168;-78
2022/09/03 02:10:19;;;;;;;0.87;0.80;;;14.80;99.90;;;;;;4993736;28;20704;-80
2022/09/03 02:12:50;;;;;;;1.13;0.90;;;14.80;99.90;;;;;;5005892;28;20223;-79
2022/09/03 02:15:19;;;;;;;1.00;1.00;;;14.70;99.90;;;;;;5005313;28;20637;-78
2022/09/03 02:17:48;;;;;;;1.93;0.93;;;14.70;99.90;;;;;;5013191;28;20239;-80
2022/09/03 02:20:21;;;;;;;0.97;0.90;;;14.70;99.90;;;;;;5013395;28;20214;-80
2022/09/03 02:22:48;;;;;;;1.17;1.07;;;14.70;99.90;;;;;;5013274;28;20182;-80
2022/09/03 02:25:16;;;;;;;2.50;1.10;;;14.70;99.90;;;;;;5012590;28;20176;-80
2022/09/03 02:27:43;;;;;;;1.10;1.00;;;14.70;99.90;;;;;;4995783;28;20224;-81
2022/09/03 02:30:09;;;;;;;0.70;0.70;;;14.70;99.90;;;;;;4976194;28;20216;-78
2022/09/03 02:32:35;;;;;;;4.73;1.00;;;14.60;99.90;;;;;;4992028;28;20547;-82
2022/09/03 02:35:01;;;;;;;1.30;0.97;;;14.60;99.90;;;;;;4992330;28;20180;-80
2022/09/03 02:37:27;;;;;;;1.13;0.93;;;14.70;99.90;;;;;;4992743;28;20315;-79
2022/09/03 02:39:53;;;;;;;3.87;1.00;;;14.60;99.90;;;;;;4993325;28;20681;-80
2022/09/03 02:42:19;;;;;;;0.93;0.70;;;14.70;99.90;;;;;;4992090;28;20227;-80
2022/09/03 02:45:10;;;;;;;1.20;1.10;;;14.60;99.90;;;;;;4993094;28;20226;-80
2022/09/03 02:47:39;;;;;;;0.80;0.80;;;14.60;99.90;;;;;;4992029;28;20602;-79
2022/09/03 02:50:05;;;;;;;1.00;0.90;;;14.50;99.90;;;;;;4992079;28;20211;-79
2022/09/03 02:52:31;;;;;;;1.10;0.90;;;14.50;99.90;;;;;;4993688;28;20210;-79
2022/09/03 02:54:57;;;;;;;0.97;0.90;;;14.40;99.90;;;;;;4975731;28;20662;-80
2022/09/03 02:57:23;;;;;;;1.30;1.20;;;14.30;99.90;;;;;;4991156;28;20693;-79
2022/09/03 02:59:49;;;;;;;1.30;1.20;;;14.20;99.90;;;;;;4975733;28;20701;-78
2022/09/03 03:02:14;;;;;;;3.33;0.93;;;14.10;99.90;;;;;;4991840;28;20561;-78
2022/09/03 03:04:40;;;;;;;4.30;1.30;;;14.00;99.90;;;;;;4976389;28;20188;-79
2022/09/03 03:07:07;;;;;;;1.20;1.13;;;14.00;99.90;;;;;;4975221;28;20231;-78
2022/09/03 03:09:32;;;;;;;1.53;1.40;;;13.90;99.90;;;;;;4992808;28;20240;-78
2022/09/03 03:11:58;;;;;;;1.33;1.23;;;13.90;99.90;;;;;;5001897;28;20229;-78
2022/09/03 03:14:24;;;;;;;1.80;1.30;;;13.80;99.90;;;;;;5010982;28;20614;-78
2022/09/03 03:16:50;;;;;;;2.70;1.30;;;13.80;99.90;;;;;;4994754;28;20729;-79
2022/09/03 03:19:16;;;;;;;1.97;1.50;;;13.80;99.90;;;;;;5012866;28;20183;-79
2022/09/03 03:21:42;;;;;;;1.17;1.07;;;13.80;99.90;;;;;;4978084;28;20219;-79
2022/09/03 03:24:08;;;;;;;1.67;1.37;;;13.90;99.90;;;;;;5010863;28;20568;-81
2022/09/03 03:26:34;;;;;;;1.23;1.07;;;13.90;99.90;;;;;;4987729;28;20620;-80
2022/09/03 03:29:03;;;;;;;1.17;1.07;;;14.00;99.90;;;;;;4992543;28;20192;-80
2022/09/03 03:31:30;;;;;;;1.23;1.13;;;14.10;99.90;;;;;;4993192;28;20187;-80
2022/09/03 03:33:58;;;;;;;3.50;1.50;;;14.10;99.90;;;;;;4991368;28;20219;-80
2022/09/03 03:36:27;;;;;;;1.43;1.00;;;14.20;99.90;;;;;;4992298;28;20231;-80
2022/09/03 03:38:54;;;;;;;1.70;1.47;;;14.30;99.90;;;;;;4997571;28;20552;-79
2022/09/03 03:41:22;;;;;;;1.10;1.03;;;14.30;99.90;;;;;;4997721;28;20664;-78
2022/09/03 03:43:56;;;;;;;1.17;1.07;;;14.30;99.90;;;;;;5011760;28;20194;-78
2022/09/03 03:46:23;;;;;;;3.73;1.07;;;14.30;99.90;;;;;;5011625;28;20270;-79
2022/09/03 03:48:50;;;;;;;1.03;1.00;;;14.30;99.90;;;;;;5010905;28;20226;-81
2022/09/03 03:51:17;;;;;;;1.50;1.30;;;14.40;99.90;;;;;;5007383;28;20224;-80
2022/09/03 03:53:43;;;;;;;1.50;1.40;;;14.40;99.90;;;;;;5000358;28;20223;-78
2022/09/03 03:56:11;;;;;;;1.23;1.13;;;14.40;99.90;;;;;;5011962;28;20340;-79
2022/09/03 03:58:41;;;;;;;1.50;1.30;;;14.60;99.90;;;;;;5012238;28;20180;-78
2022/09/03 04:01:09;;;;;;;1.37;1.00;;;14.60;99.90;;;;;;5012323;28;20219;-79
2022/09/03 04:03:35;;;;;;;1.23;1.13;;;14.70;99.90;;;;;;5012058;28;20622;-79
2022/09/03 04:06:03;;;;;;;1.33;1.17;;;14.70;99.90;;;;;;5010610;28;20211;-79
2022/09/03 04:08:32;;;;;;;1.00;1.00;;;14.70;99.90;;;;;;5012997;28;20761;-77
2022/09/03 04:11:00;;;;;;;1.10;1.10;;;14.70;99.90;;;;;;5014531;28;20190;-80
2022/09/03 04:13:33;;;;;;;1.33;1.10;;;14.70;99.90;;;;;;5015071;28;20214;-78
2022/09/03 04:16:08;;;;;;;7.03;1.40;;;14.70;99.90;;;;;;5014508;28;20251;-78
2022/09/03 04:18:35;;;;;;;2.80;1.00;;;14.70;99.90;;;;;;5015662;28;20316;-80
2022/09/03 04:21:03;;;;;;;1.23;0.83;;;14.70;99.90;;;;;;5015198;28;20246;-78
2022/09/03 04:23:30;;;;;;;1.10;1.00;;;14.70;99.90;;;;;;5015257;28;20219;-78
2022/09/03 04:25:56;;;;;;;1.47;1.13;;;14.70;99.90;;;;;;5015097;28;20684;-78
2022/09/03 04:28:22;;;;;;;1.47;1.13;;;14.70;99.90;;;;;;5014511;28;20709;-79
2022/09/03 04:30:48;;;;;;;0.97;0.90;;;14.80;99.90;;;;;;5015345;28;20243;-80
2022/09/03 04:33:14;;;;;;;0.90;0.90;;;14.80;99.90;;;;;;5013750;28;20306;-82
2022/09/03 04:35:40;;;;;;;1.27;1.10;;;14.80;99.90;;;;;;5013858;28;20587;-80
2022/09/03 04:38:06;;;;;;;1.30;1.20;;;14.80;99.90;;;;;;5014127;28;20226;-78
2022/09/03 04:40:32;;;;;;;1.93;1.30;;;14.80;99.90;;;;;;5015370;28;20645;-78
2022/09/03 04:42:59;;;;;;;1.10;1.07;;;14.80;99.90;;;;;;5010491;28;20219;-80
2022/09/03 04:45:27;;;;;;;1.37;1.00;;;14.80;99.90;;;;;;5013837;28;20692;-78
2022/09/03 04:48:12;;;;;;;1.60;1.50;;;14.80;99.90;;;;;;5010341;28;20216;-79
2022/09/03 04:50:38;;;;;;;1.50;1.10;;;14.80;99.90;;;;;;4985540;28;20218;-80
2022/09/03 04:53:04;;;;;;;1.13;1.00;;;14.80;99.90;;;;;;5014578;28;20231;-79
2022/09/03 04:55:37;;;;;;;1.70;1.43;;;14.80;99.90;;;;;;5013626;28;20185;-79
2022/09/03 04:58:04;;;;;;;1.60;1.40;;;14.80;99.90;;;;;;5014908;28;20440;-79
2022/09/03 05:00:29;;;;;;;1.40;1.30;;;14.80;99.90;;;;;;5014472;28;20277;-79
2022/09/03 05:02:58;;;;;;;1.40;1.30;;;14.90;99.90;;;;;;5013275;28;20246;-79
2022/09/03 05:05:24;;;;;;;1.50;1.07;;;14.90;99.90;;;;;;5010056;28;20577;-79
2022/09/03 05:07:50;;;;;;;1.20;1.13;;;14.90;99.90;;;;;;4978211;28;20184;-79
2022/09/03 05:10:19;;;;;;;1.17;1.07;;;14.90;99.90;;;;;;5014981;28;20238;-79
2022/09/03 05:13:00;;;;;;;1.30;1.10;;;15.00;99.90;;;;;;5010000;28;20231;-80
2022/09/03 05:15:30;;;;;;;0.90;0.80;;;15.00;99.90;;;;;;5007536;28;20222;-78
2022/09/03 05:18:03;;;;;;;1.00;1.00;;;15.00;99.90;;;;;;5014128;28;20215;-81
2022/09/03 05:20:30;;;;;;;1.30;1.00;;;15.00;99.90;;;;;;5011813;28;20298;-80
2022/09/03 05:22:56;;;;;;;1.00;1.00;;;15.00;99.90;;;;;;5013299;28;20187;-80
2022/09/03 05:25:23;;;;;;;1.27;1.17;;;15.00;99.90;;;;;;5013423;28;20629;-78
2022/09/03 05:27:50;;;;;;;1.60;1.50;;;15.00;99.90;;;;;;5014421;28;20264;-79
2022/09/03 05:30:16;;;;;;;1.33;1.23;;;15.00;99.90;;;;;;5014285;28;20226;-80
2022/09/03 05:32:42;;;;;;;1.43;1.33;;;15.00;99.90;;;;;;5012740;28;20732;-80
2022/09/03 05:35:09;;;;;;;1.07;0.93;;;15.00;99.90;;;;;;5029161;28;20681;-80
2022/09/03 05:37:35;;;;;;;3.03;1.30;;;15.00;99.90;;;;;;5013279;28;20184;-78
2022/09/03 05:40:02;;;;;;;1.20;1.10;;;15.00;99.90;;;;;;5013960;28;20249;-79
2022/09/03 05:42:28;;;;;;;1.23;1.13;;;15.00;99.90;;;;;;4996259;28;20298;-81
2022/09/03 05:44:53;;;;;;;0.93;0.93;;;15.00;99.90;;;;;;5013831;28;20315;-79
2022/09/03 05:47:19;;;;;;;1.13;1.03;;;15.00;99.90;;;;;;5013742;28;20695;-79
2022/09/03 05:49:45;;;;;;;3.13;1.30;;;15.00;99.90;;;;;;4995878;28;20179;-78
2022/09/03 05:52:10;;;;;;;1.73;1.30;;;15.10;99.90;;;;;;5013006;28;20270;-81
2022/09/03 05:54:36;;;;;;;1.20;1.10;;;15.20;99.90;;;;;;5012251;28;20600;-79
2022/09/03 05:57:02;;;;;;;2.07;1.50;;;15.20;99.90;;;;;;5008985;28;20311;-79
2022/09/03 05:59:28;;;;;;;2.10;1.03;;;15.70;99.90;;;;;;4982770;28;20226;-77
2022/09/03 06:01:54;;;;;;;2.63;1.23;;;16.10;99.90;;;;;;5012176;28;20195;-78
2022/09/03 06:04:20;;;;;;;1.17;1.03;;;15.80;99.90;;;;;;5012662;28;20188;-78
2022/09/03 06:06:47;;;;;;;1.27;1.17;;;15.60;99.90;;;;;;5012043;28;20211;-83
2022/09/03 06:09:20;;;;;;;1.57;1.47;;;16.00;99.90;;;;;;5012848;28;20243;-79
2022/09/03 06:11:50;;;;;;;1.33;1.23;;;16.80;99.90;;;;;;5013385;28;20231;-82
2022/09/03 06:14:16;;;;;;;1.37;1.27;;;17.40;99.90;;;;;;5011874;28;20238;-78
2022/09/03 06:16:45;;;;;;;6.43;1.43;;;18.10;99.90;;;;;;5012314;28;20206;-81
2022/09/03 06:19:13;;;;;;;2.23;1.47;;;18.50;99.90;;;;;;5012342;28;20207;-81
2022/09/03 06:21:43;;;;;;;1.77;1.30;;;18.30;99.90;;;;;;5013185;28;20219;-79
2022/09/03 06:24:22;;;;;;;1.50;1.10;;;17.70;99.90;;;;;;5013363;28;20234;-79
2022/09/03 06:26:48;;;;;;;1.57;1.47;;;16.80;99.90;;;;;;5011821;28;20280;-83
2022/09/03 06:29:14;;;;;;;5.53;1.60;;;16.40;99.90;;;;;;5013145;28;20215;-79
2022/09/03 06:31:40;;;;;;;1.20;1.10;;;16.20;99.90;;;;;;5012065;28;20187;-80
2022/09/03 06:34:06;;;;;;;2.43;1.47;;;16.00;99.90;;;;;;5013037;28;20223;-80
2022/09/03 06:36:32;;;;;;;3.17;1.80;;;16.00;99.90;;;;;;5013118;28;20591;-78
2022/09/03 06:38:58;;;;;;;1.93;1.50;;;16.00;99.90;;;;;;5008457;28;20219;-79
2022/09/03 06:41:27;;;;;;;2.20;1.40;;;16.00;99.90;;;;;;4997599;28;20257;-80
2022/09/03 06:43:57;;;;;;;1.57;1.47;;;16.10;99.90;;;;;;5012701;28;20226;-84
2022/09/03 06:46:24;;;;;;;1.20;1.10;;;16.10;99.90;;;;;;5012335;28;20234;-83
2022/09/03 06:48:50;;;;;;;1.33;1.23;;;16.20;99.90;;;;;;5011248;28;20305;-79
2022/09/03 06:51:21;;;;;;;1.63;1.47;;;16.30;99.90;;;;;;5012777;28;20311;-80
2022/09/03 06:53:49;;;;;;;1.97;1.50;;;16.90;99.90;;;;;;5012397;28;20259;-82
2022/09/03 06:56:18;;;;;;;2.23;1.53;;;18.00;99.90;;;;;;5011132;28;20211;-79
2022/09/03 06:58:46;;;;;;;1.40;1.20;;;19.00;99.90;;;;;;5011229;28;20179;-79
2022/09/03 07:01:16;;;;;;;3.43;2.00;;;19.30;99.90;;;;;;5011683;28;20190;-82
2022/09/03 07:03:44;;;;;;;1.93;1.70;;;19.70;99.90;;;;;;5012669;28;20231;-81
2022/09/03 07:06:15;;;;;;;3.60;1.70;;;20.00;99.90;;;;;;5011027;28;20234;-79
2022/09/03 07:08:41;;;;;;;1.80;1.20;;;20.20;99.90;;;;;;5007404;28;20409;-81
2022/09/03 07:11:13;;;;;;;1.50;1.20;;;19.70;99.90;;;;;;4978860;28;20219;-78
2022/09/03 07:13:42;;;;;;;1.43;1.33;;;20.10;99.90;;;;;;5011438;28;20203;-81
2022/09/03 07:16:09;;;;;;;1.70;1.40;;;20.40;99.90;;;;;;5012592;28;20705;-80
2022/09/03 07:18:35;;;;;;;2.07;1.10;;;19.80;99.90;;;;;;5012110;28;20660;-79
2022/09/03 07:21:04;;;;;;;1.30;1.20;;;19.90;99.90;;;;;;5011101;28;20219;-79
2022/09/03 07:23:30;;;;;;;1.43;1.23;;;19.70;99.90;;;;;;5007722;28;20673;-79
2022/09/03 07:25:58;;;;;;;2.43;1.23;;;19.60;99.90;;;;;;5009323;28;20183;-78
2022/09/03 07:28:24;;;;;;;1.50;1.30;;;19.50;99.90;;;;;;5011613;28;20541;-78
2022/09/03 07:30:51;;;;;;;3.03;1.97;;;19.70;99.90;;;;;;5010995;28;20222;-79
2022/09/03 07:33:17;;;;;;;1.30;1.20;;;19.90;99.90;;;;;;5010670;28;20672;-78
2022/09/03 07:35:44;;;;;;;2.00;1.80;;;19.90;99.90;;;;;;4990937;28;20220;-79
2022/09/03 07:38:11;;;;;;;2.07;1.30;;;19.80;99.90;;;;;;4996035;28;20213;-80
2022/09/03 07:40:38;;;;;;;1.50;1.40;;;19.80;99.90;;;;;;5011327;28;20698;-78
2022/09/03 07:43:04;;;;;;;1.57;1.47;;;19.70;99.90;;;;;;5011515;28;20254;-78
2022/09/03 07:45:32;;;;;;;7.13;1.80;;;19.50;99.90;;;;;;5014651;28;20273;-82
2022/09/03 07:47:58;;;;;;;1.60;1.50;;;19.50;99.90;;;;;;5015690;28;20226;-77
2022/09/03 07:50:24;;;;;;;1.70;1.60;;;19.60;99.90;;;;;;5016295;28;20219;-80
2022/09/03 07:52:56;;;;;;;1.43;1.33;;;19.70;99.90;;;;;;5031082;28;20175;-79
2022/09/03 07:55:22;;;;;;;1.43;1.33;;;19.40;99.90;;;;;;4999408;28;20549;-79
2022/09/03 07:57:48;;;;;;;1.33;1.23;;;19.40;99.90;;;;;;5014836;28;20294;-79
2022/09/03 08:00:14;;;;;;;1.63;1.27;;;19.40;99.90;;;;;;5014563;28;20226;-79
2022/09/03 08:02:40;;;;;;;1.87;1.53;;;19.30;99.90;;;;;;4982215;28;20214;-79
2022/09/03 08:05:06;;;;;;;1.10;1.00;;;19.50;99.90;;;;;;5014282;28;20223;-79
2022/09/03 08:07:31;;;;;;;1.70;1.60;;;19.60;99.90;;;;;;4999005;28;20554;-81
2022/09/03 08:09:57;;;;;;;0.80;0.80;;;19.70;99.90;;;;;;5015803;28;20243;-78
2022/09/03 08:12:23;;;;;;;0.90;0.90;;;19.80;99.90;;;;;;4998310;28;20219;-78
2022/09/03 08:14:50;;;;;;;1.20;1.03;;;19.90;99.90;;;;;;5015636;28;20227;-79
2022/09/03 08:17:15;;;;;;;1.43;1.17;;;20.10;99.90;;;;;;4982080;28;20277;-79
2022/09/03 08:19:42;;;;;;;2.03;1.60;;;20.50;99.90;;;;;;4998799;28;20211;-80
2022/09/03 08:22:09;;;;;;;3.00;1.30;;;21.00;99.90;;;;;;4998362;28;20316;-79
2022/09/03 08:24:35;;;;;;;1.77;1.30;;;20.60;99.90;;;;;;4978672;28;20251;-79
2022/09/03 08:27:00;;;;;;;2.13;1.00;;;20.50;99.90;;;;;;5005068;28;20243;-81
2022/09/03 08:29:26;;;;;;;1.90;1.80;;;20.60;99.90;;;;;;5015487;28;20289;-79
2022/09/03 08:31:52;;;;;;;1.53;1.43;;;20.80;99.90;;;;;;5013817;28;20621;-81
2022/09/03 08:34:18;;;;;;;3.40;1.00;;;20.90;99.90;;;;;;5014253;28;20265;-79
2022/09/03 08:36:45;;;;;;;1.63;1.13;;;20.80;99.90;;;;;;4997544;28;20227;-79
2022/09/03 08:39:12;;;;;;;3.53;1.13;;;20.80;99.90;;;;;;5010734;28;20219;-81
2022/09/03 08:41:50;;;;;;;1.30;1.20;;;21.00;99.90;;;;;;5003201;28;20342;-79
2022/09/03 08:44:41;;;;;;;1.30;1.20;;;21.00;99.90;;;;;;5014924;28;20254;-79
2022/09/03 08:47:19;;;;;;;2.37;1.20;;;21.00;99.90;;;;;;5013649;28;20229;-80
2022/09/03 08:50:11;;;;;;;1.80;1.40;;;21.70;99.90;;;;;;5014864;28;20198;-79
2022/09/03 08:52:47;;;;;;;2.15;1.00;;;22.40;99.90;;;;;;5015544;28;20187;-82
2022/09/03 08:55:32;;;;;;;1.30;1.20;;;22.00;99.90;;;;;;5013509;28;20222;-80
2022/09/03 08:58:09;;;;;;;1.20;1.10;;;21.90;99.90;;;;;;5030170;28;20240;-80
2022/09/03 09:00:47;;;;;;;1.57;1.33;;;21.60;99.90;;;;;;5014813;28;20223;-80
2022/09/03 09:03:22;;;;;;;1.65;1.38;;;21.90;99.90;;;;;;5014650;28;20235;-83
2022/09/03 09:06:06;;;;;;;1.75;1.50;;;21.70;99.90;;;;;;5014597;28;20241;-80
2022/09/03 09:08:38;;;;;;;1.63;1.48;;;21.90;99.90;;;;;;5014644;28;20235;-79
2022/09/03 09:11:17;;;;;;;1.25;1.15;;;22.60;99.90;;;;;;5013332;28;20226;-79
2022/09/03 09:14:27;;;;;;;1.33;1.25;;;22.40;99.90;;;;;;5014781;28;20253;-80
2022/09/03 09:17:11;;;;;;;4.60;1.45;;;22.80;99.90;;;;;;5013357;28;20183;-79
2022/09/03 09:19:49;;;;;;;1.17;1.15;;;22.80;99.90;;;;;;5013772;28;20175;-82
2022/09/03 09:22:28;;;;;;;1.25;1.15;;;22.80;99.90;;;;;;5009861;28;20273;-80
2022/09/03 09:24:57;;;;;;;1.27;1.05;;;23.10;99.90;;;;;;4993509;28;20216;-79
2022/09/03 09:27:24;;;;;;;1.63;1.10;;;22.70;99.90;;;;;;4994914;28;20242;-80
2022/09/03 09:29:51;;;;;;;1.58;1.48;;;22.70;99.90;;;;;;4993564;28;20223;-79
2022/09/03 09:32:18;;;;;;;1.35;1.13;;;23.00;99.90;;;;;;4994361;28;20761;-82
2022/09/03 09:34:44;;;;;;;1.23;1.13;;;23.20;99.90;;;;;;4994629;28;20200;-81
2022/09/03 09:37:14;;;;;;;1.45;1.30;;;22.70;99.90;;;;;;4994696;28;20176;-81
2022/09/03 09:39:52;;;;;;;1.27;1.17;;;22.60;99.90;;;;;;4993324;28;20686;-80
2022/09/03 09:42:21;;;;;;;3.50;1.55;;;22.60;99.90;;;;;;4994542;28;20211;-81
2022/09/03 09:44:47;;;;;;;1.02;1.02;;;22.90;99.90;;;;;;4994430;28;20239;-78
2022/09/03 09:47:24;;;;;;;1.20;1.10;;;23.00;99.90;;;;;;4976891;28;20669;-79
2022/09/03 09:49:55;;;;;;;1.50;1.40;;;23.40;99.90;;;;;;5009461;28;20737;-80
2022/09/03 09:52:24;;;;;;;1.05;1.05;;;23.00;99.90;;;;;;4994913;28;20179;-78
2022/09/03 09:54:55;;;;;;;1.17;1.10;;;22.90;99.90;;;;;;4992858;28;20608;-79
2022/09/03 09:57:24;;;;;;;1.30;1.20;;;23.20;99.90;;;;;;5009363;28;20227;-79
2022/09/03 10:00:03;;;;;;;1.48;1.38;;;23.10;99.90;;;;;;4992966;28;20238;-80
2022/09/03 10:02:29;;;;;;;1.42;1.30;;;23.30;99.90;;;;;;4994083;28;20761;-81
2022/09/03 10:05:13;;;;;;;1.42;1.10;;;23.20;99.90;;;;;;4992395;28;20331;-79
2022/09/03 10:07:39;;;;;;;1.67;1.20;;;23.20;99.90;;;;;;4993911;28;20231;-79
2022/09/03 10:10:13;;;;;;;1.30;1.20;;;23.20;99.90;;;;;;4994232;28;20243;-80
2022/09/03 10:13:23;;;;;;;1.20;1.10;;;23.20;99.90;;;;;;4992803;28;20227;-79
2022/09/03 10:16:01;;;;;;;2.70;1.20;;;23.20;99.90;;;;;;4914529;29;20265;-78
2022/09/03 10:18:45;;;;;;;1.48;1.38;;;23.30;99.90;;;;;;4988883;28;20226;-79
2022/09/03 10:21:13;;;;;;;1.30;1.20;;;23.70;99.90;;;;;;4993437;28;20299;-81
2022/09/03 10:23:56;;;;;;;1.55;1.35;;;23.60;99.90;;;;;;4993590;28;20307;-78
2022/09/03 10:26:29;;;;;;;2.42;1.30;;;23.60;99.90;;;;;;4993590;28;20220;-79
2022/09/03 10:29:01;;;;;;;1.23;1.17;;;24.00;99.90;;;;;;4992336;28;20275;-79
2022/09/03 10:31:54;;;;;;;1.73;1.30;;;23.70;99.90;;;;;;4993606;28;20236;-80
2022/09/03 10:34:33;;;;;;;2.13;1.83;;;23.70;99.90;;;;;;5013261;28;20238;-80
2022/09/03 10:37:25;;;;;;;1.55;1.30;;;23.70;99.90;;;;;;5013082;28;20222;-81
2022/09/03 10:40:09;;;;;;;2.78;1.65;;;24.20;99.90;;;;;;5012851;28;20572;-80
2022/09/03 10:43:07;;;;;;;1.30;1.20;;;23.90;99.90;;;;;;5012728;28;20216;-78
2022/09/03 10:46:02;;;;;;;1.55;1.45;;;23.70;99.90;;;;;;5012752;28;20269;-77
2022/09/03 10:48:58;;;;;;;1.30;1.20;;;23.90;99.90;;;;;;5012832;28;20226;-80
2022/09/03 10:51:32;;;;;;;1.40;1.30;;;23.90;99.90;;;;;;5012883;28;20215;-77
2022/09/03 10:54:07;;;;;;;1.15;1.00;;;23.90;99.90;;;;;;5027659;28;20227;-79
2022/09/03 10:56:56;;;;;;;1.35;1.10;;;24.10;99.90;;;;;;5012577;28;20218;-80
2022/09/03 10:59:40;;;;;;;0.93;0.93;;;23.60;99.90;;;;;;4975252;28;20294;-79
2022/09/03 11:02:25;;;;;;;0.98;0.98;;;23.60;99.90;;;;;;5012372;28;20219;-79
2022/09/03 11:05:09;;;;;;;1.42;1.33;;;23.60;99.90;;;;;;5011295;28;20241;-79
2022/09/03 11:07:50;;;;;;;5.70;1.42;;;23.70;99.90;;;;;;5028241;28;20225;-79
2022/09/03 11:10:25;;;;;;;1.50;1.40;;;24.10;99.90;;;;;;5011428;28;20239;-79
2022/09/03 11:13:19;;;;;;;1.60;1.35;;;24.30;99.90;;;;;;5012344;28;20218;-80
2022/09/03 11:15:53;;;;;;;4.43;1.30;;;24.00;99.90;;;;;;5011352;28;20231;-79
2022/09/03 11:18:33;;;;;;;1.63;1.40;;;23.90;99.90;;;;;;5011643;28;20232;-79
2022/09/03 11:21:04;;;;;;;1.60;1.50;;;24.10;99.90;;;;;;5011204;28;20681;-83
2022/09/03 11:23:35;;;;;;;1.77;1.13;;;24.20;99.90;;;;;;5011141;28;20223;-81
2022/09/03 11:26:06;;;;;;;2.90;1.38;;;24.20;99.90;;;;;;5012101;28;20214;-80
2022/09/03 11:28:34;;;;;;;1.52;1.42;;;24.10;99.90;;;;;;5012695;28;20183;-84
2022/09/03 11:31:35;;;;;;;1.77;1.38;;;24.20;99.90;;;;;;5011258;28;20227;-81
2022/09/03 11:34:13;;;;;;;1.50;1.40;;;24.30;99.90;;;;;;5006015;28;20573;-84
2022/09/03 11:36:39;;;;;;;1.58;1.27;;;24.40;99.90;;;;;;5012256;28;20227;-83
2022/09/03 11:39:17;;;;;;;1.20;1.10;;;24.70;99.90;;;;;;5010781;28;20299;-83
2022/09/03 11:41:56;;;;;;;1.58;1.48;;;24.50;99.90;;;;;;5010806;28;20219;-81
2022/09/03 11:44:22;;;;;;;1.63;1.50;;;24.50;99.90;;;;;;5011965;28;20279;-81
2022/09/03 11:46:55;;;;;;;2.22;1.50;;;24.40;99.90;;;;;;5010918;28;20195;-81
2022/09/03 11:49:28;;;;;;;1.30;1.20;;;24.50;99.90;;;;;;5012425;28;20266;-80
2022/09/03 11:52:03;;;;;;;1.33;1.23;;;24.30;99.90;;;;;;5011004;28;20215;-82
2022/09/03 11:54:42;;;;;;;1.20;1.10;;;24.30;99.90;;;;;;5010368;28;20253;-81
2022/09/03 11:57:15;;;;;;;1.77;1.30;;;24.10;99.90;;;;;;5012124;28;20226;-81
2022/09/03 11:59:43;;;;;;;2.92;1.42;;;24.40;99.90;;;;;;5011986;28;20290;-83
2022/09/03 12:02:23;;;;;;;1.05;1.00;;;24.80;99.90;;;;;;5010637;28;20221;-81
2022/09/03 12:05:09;;;;;;;0.77;0.77;;;24.40;99.90;;;;;;5011705;28;20259;-81
2022/09/03 12:08:04;;;;;;;0.95;0.95;;;24.60;99.90;;;;;;5012264;28;20641;-78
2022/09/03 12:10:42;;;;;;;1.25;1.15;;;24.50;99.90;;;;;;5024139;28;20735;-79
2022/09/03 12:14:10;;;;;;;2.35;1.60;;;24.70;99.90;;;;;;5012132;28;20233;-79
2022/09/03 12:17:03;;;;;;;1.00;1.00;;;24.70;99.90;;;;;;4890457;29;20252;-79
2022/09/03 12:19:53;;;;;;;1.00;1.00;;;24.70;99.90;;;;;;4932152;29;20210;-83
2022/09/03 12:22:21;;;;;;;1.20;1.10;;;24.70;99.90;;;;;;5002407;28;20211;-81
2022/09/03 12:24:49;;;;;;;1.90;1.15;;;24.80;99.90;;;;;;5026886;28;20249;-80
2022/09/03 12:27:26;;;;;;;4.57;1.15;;;25.00;99.90;;;;;;5010793;28;20562;-79
2022/09/03 12:30:03;;;;;;;3.47;1.30;;;24.90;99.90;;;;;;5013783;28;20261;-80
2022/09/03 12:32:35;;;;;;;0.90;0.90;;;24.70;99.90;;;;;;5015075;28;20573;-81
2022/09/03 12:35:20;;;;;;;1.20;1.10;;;24.70;99.90;;;;;;5015665;28;20693;-79
2022/09/03 12:37:46;;;;;;;1.17;1.02;;;24.80;99.90;;;;;;5028528;28;20660;-82
2022/09/03 12:40:30;;;;;;;1.95;1.52;;;24.90;99.90;;;;;;5006206;28;20175;-85
2022/09/03 12:43:15;;;;;;;1.08;0.98;;;24.90;99.90;;;;;;4997549;28;20732;-81
2022/09/03 12:45:46;;;;;;;0.90;0.90;;;24.90;99.90;;;;;;4997647;28;20208;-80
2022/09/03 12:48:14;;;;;;;1.20;1.10;;;24.90;99.90;;;;;;4995857;28;20279;-81
2022/09/03 12:50:41;;;;;;;1.90;1.50;;;25.20;99.90;;;;;;4994554;28;20208;-80
2022/09/03 12:53:09;;;;;;;1.50;1.30;;;24.90;99.90;;;;;;4994370;28;20303;-81
2022/09/03 12:55:52;;;;;;;2.28;0.93;;;25.20;99.90;;;;;;4996775;28;20692;-80
2022/09/03 12:58:22;;;;;;;0.80;0.80;;;25.20;99.90;;;;;;5016609;28;20207;-79
2022/09/03 13:01:10;;;;;;;1.25;1.15;;;24.90;99.90;;;;;;5014849;28;20227;-80
2022/09/03 13:03:53;;;;;;;2.95;1.38;;;24.90;99.90;;;;;;5015872;28;20219;-81
2022/09/03 13:06:23;;;;;;;1.35;1.10;;;25.00;99.90;;;;;;5016532;28;20219;-79
2022/09/03 13:08:56;;;;;;;1.63;1.10;;;24.90;99.90;;;;;;5014376;28;20239;-81
2022/09/03 13:11:23;;;;;;;2.17;1.65;;;24.90;99.90;;;;;;5016990;28;20218;-83
2022/09/03 13:14:11;;;;;;;3.60;1.23;;;24.90;99.90;;;;;;5015671;28;20211;-80
2022/09/03 13:16:37;;;;;;;1.70;1.30;;;25.10;99.90;;;;;;5017510;28;20180;-79
2022/09/03 13:19:27;;;;;;;1.30;1.17;;;25.30;99.90;;;;;;5017501;28;20220;-79
2022/09/03 13:22:04;;;;;;;3.03;1.25;;;25.20;99.50;;;;;;5015576;28;20219;-80